Etusivu
METAR-TAF:

METAR-TAF

Lentoasemat :

Fort Severn, Ontario, Kanada

Leveyspiiri: 56-01-08N, Pituuspiiri: 87-40-34W, korkeus merenpinnasta: 16 m

Tämänhetkinen sää

Tämä raportti tehtiin 28 minuuttia sitten, kello 16.00 UTC
Tuuli 7 kn lännestä/luoteesta
Lämpötila -23°C
Kosteus 84%
Ilmanpaine 1035 hPa
Näkyvyys: 14.5 km
selkeää

METAR: CYER 251600Z AUTO 30007KT 9SM CLR M23/M25 A3057 RMK SLP355

Aika: 11:28 (16:28 UTC)

Sääennuste

Tämä raportti tehtiin 2 tuntia ja 50 minuuttia sitten, kello 13.38 UTC
Ennuste voimassa 25. päivästä klo 14 UTC - 25. päivään klo 20 UTC
Tuuli 6 kn luoteesta
Näkyvyys: 10 km
Muutamia pilviä 4000 ft:n korkeudessa

TAF: CYER 251338Z 2514/2520 31006KT P6SM FEW040 RMK FCST BASED ON AUTO OBS. NXT FCST WILL BE ISSUED AT 260945Z

Säähavainnot ja -ennusteet yli 4000 lentoasemalta (METAR- ja TAF-raportit).

Käytössä olevat sääasemat on merkitty karttaan keltaisilla ja punaisilla pisteillä.

Aseta hiiri pisteen päälle nähdäksesi sääaseman nimen.

Klikkaa sitten nähdäksesi säähavainnot ja -ennusteet.

Kartan vaihtaminen: klikkaa mustalla rastilla varustettuja vihreitä pisteitä, niin voit zoomata sisään; viivalla varustettua vihreää pistettä, niin voit zoomata ulos tai vihreitä nuolia, niin pääset viereisille kartoille.


METAR-TAF: